createdAt,value
2022-11-10T00:00:48.251Z,15.40
2022-11-10T00:03:34.994Z,22.30
2022-11-10T00:06:20.465Z,22.60
2022-11-10T00:09:06.758Z,18.17
2022-11-10T00:11:52.607Z,21.10
2022-11-10T00:14:57.109Z,23.03
2022-11-10T00:17:43.106Z,24.57
2022-11-10T00:20:29.184Z,18.13
2022-11-10T00:23:15.255Z,21.70
2022-11-10T00:26:01.207Z,22.13
2022-11-10T00:28:47.018Z,18.20
2022-11-10T00:31:33.107Z,20.83
2022-11-10T00:34:19.076Z,20.90
2022-11-10T00:37:05.041Z,16.23
2022-11-10T00:39:51.079Z,19.10
2022-11-10T00:42:37.266Z,22.33
2022-11-10T00:45:23.068Z,22.70
2022-11-10T00:48:08.684Z,23.47
2022-11-10T00:50:54.678Z,22.77
2022-11-10T00:53:40.314Z,20.60
2022-11-10T00:56:26.368Z,19.07
2022-11-10T00:59:12.452Z,32.00
2022-11-10T01:01:58.301Z,27.17
2022-11-10T01:04:44.134Z,19.30
2022-11-10T01:07:30.052Z,23.60
2022-11-10T01:10:16.072Z,22.97
2022-11-10T01:13:04.521Z,24.20
2022-11-10T01:15:50.302Z,24.43
2022-11-10T01:18:36.403Z,27.03
2022-11-10T01:21:23.081Z,24.53
2022-11-10T01:24:08.910Z,27.17
2022-11-10T01:26:54.724Z,24.30
2022-11-10T01:29:40.262Z,27.40
2022-11-10T01:32:25.575Z,28.27
2022-11-10T01:35:11.215Z,20.00
2022-11-10T01:37:57.438Z,27.03
2022-11-10T01:40:43.916Z,21.30
2022-11-10T01:43:30.503Z,32.17
2022-11-10T01:46:16.293Z,14.23
2022-11-10T01:49:04.258Z,27.67
2022-11-10T01:52:19.151Z,25.57
2022-11-10T01:55:04.988Z,19.50
2022-11-10T01:57:51.668Z,23.50
2022-11-10T02:00:37.542Z,22.63
2022-11-10T02:03:32.413Z,26.03
2022-11-10T02:06:20.929Z,23.77
2022-11-10T02:09:07.516Z,21.77
2022-11-10T02:11:55.074Z,31.67
2022-11-10T02:14:41.431Z,28.03
2022-11-10T02:17:27.177Z,34.10
2022-11-10T02:20:15.869Z,32.77
2022-11-10T02:23:36.914Z,30.77
2022-11-10T02:26:25.738Z,34.20
2022-11-10T02:29:12.198Z,35.33
2022-11-10T02:31:58.250Z,27.63
2022-11-10T02:34:44.058Z,25.63
2022-11-10T02:37:29.640Z,28.97
2022-11-10T02:40:15.819Z,25.57
2022-11-10T02:43:02.134Z,34.20
2022-11-10T02:45:47.744Z,29.13
2022-11-10T02:48:33.978Z,38.20
2022-11-10T02:51:19.379Z,32.93
2022-11-10T02:54:06.282Z,30.57
2022-11-10T02:56:52.076Z,34.13
2022-11-10T02:59:38.133Z,44.73
2022-11-10T03:02:28.446Z,32.57
2022-11-10T03:07:46.755Z,43.93
2022-11-10T03:10:32.765Z,28.50
2022-11-10T03:13:18.641Z,28.23
2022-11-10T03:16:04.880Z,35.63
2022-11-10T03:18:50.201Z,26.03
2022-11-10T03:21:35.773Z,37.10
2022-11-10T03:24:21.934Z,28.93
2022-11-10T03:27:07.913Z,41.07
2022-11-10T03:29:53.750Z,35.43
2022-11-10T03:32:39.228Z,36.37
2022-11-10T03:35:25.467Z,29.20
2022-11-10T03:38:11.552Z,35.97
2022-11-10T03:41:18.270Z,36.93
2022-11-10T03:44:03.042Z,34.37
2022-11-10T03:46:51.561Z,31.93
2022-11-10T03:49:38.016Z,37.03
2022-11-10T03:52:23.733Z,35.13
2022-11-10T03:55:12.454Z,36.30
2022-11-10T03:58:02.902Z,28.73
2022-11-10T04:00:48.886Z,35.10
2022-11-10T04:03:34.877Z,32.60
2022-11-10T04:06:39.794Z,32.93
2022-11-10T04:09:25.786Z,42.37
2022-11-10T04:12:31.907Z,35.53
2022-11-10T04:15:36.765Z,37.60
2022-11-10T04:18:25.961Z,39.33
2022-11-10T04:21:12.271Z,37.03
2022-11-10T04:23:58.134Z,25.83
2022-11-10T04:26:45.099Z,32.47
2022-11-10T04:29:31.135Z,35.27
2022-11-10T04:32:16.786Z,33.37
2022-11-10T04:35:02.881Z,35.37
2022-11-10T04:37:49.180Z,31.37
2022-11-10T04:40:34.858Z,35.63
2022-11-10T04:43:20.866Z,40.63
2022-11-10T04:46:08.645Z,46.42
2022-11-10T04:48:55.377Z,37.17
2022-11-10T04:51:40.926Z,34.87
2022-11-10T04:54:27.340Z,38.70
2022-11-10T04:57:13.426Z,30.30
2022-11-10T04:59:59.510Z,32.20
2022-11-10T05:02:45.040Z,31.60
2022-11-10T05:05:31.699Z,42.70
2022-11-10T05:08:17.456Z,33.50
2022-11-10T05:11:03.282Z,44.17
2022-11-10T05:13:49.499Z,40.43
2022-11-10T05:16:37.578Z,42.05
2022-11-10T05:19:23.310Z,34.63
2022-11-10T05:22:09.188Z,37.00
2022-11-10T05:24:54.967Z,42.57
2022-11-10T05:27:40.926Z,38.43
2022-11-10T05:30:26.843Z,45.83
2022-11-10T05:33:12.364Z,41.70
2022-11-10T05:35:58.444Z,36.83
2022-11-10T05:38:44.295Z,31.17
2022-11-10T05:41:29.970Z,37.80
2022-11-10T05:44:15.868Z,43.80
2022-11-10T05:47:01.529Z,40.57
2022-11-10T05:49:47.817Z,32.27
2022-11-10T05:52:33.661Z,46.70
2022-11-10T05:55:24.568Z,42.43
2022-11-10T05:58:10.638Z,37.27
2022-11-10T06:00:56.402Z,31.30
2022-11-10T06:03:42.110Z,32.53
2022-11-10T06:06:28.189Z,30.20
2022-11-10T06:09:14.252Z,51.47
2022-11-10T06:12:00.022Z,36.00
2022-11-10T06:14:45.463Z,40.73
2022-11-10T06:17:31.521Z,43.57
2022-11-10T06:20:17.624Z,33.50
2022-11-10T06:23:09.572Z,42.30
2022-11-10T06:25:55.351Z,27.83
2022-11-10T06:28:41.142Z,39.77
2022-11-10T06:31:26.963Z,37.33
2022-11-10T06:34:13.098Z,37.20
2022-11-10T06:36:58.558Z,34.87
2022-11-10T06:39:44.036Z,40.23
2022-11-10T06:42:29.947Z,41.73
2022-11-10T06:45:15.689Z,49.93
2022-11-10T06:48:02.490Z,49.13
2022-11-10T06:50:47.964Z,44.33
2022-11-10T06:53:34.066Z,42.53
2022-11-10T06:56:20.201Z,47.90
2022-11-10T06:59:06.094Z,39.63
2022-11-10T07:01:52.035Z,54.73
2022-11-10T07:04:38.275Z,35.97
2022-11-10T07:07:24.442Z,34.93
2022-11-10T07:10:10.381Z,40.37
2022-11-10T07:12:57.541Z,43.30
2022-11-10T07:15:44.255Z,36.10
2022-11-10T07:18:30.664Z,43.00
2022-11-10T07:21:16.670Z,39.27
2022-11-10T07:24:02.463Z,29.17
2022-11-10T07:26:48.729Z,31.57
2022-11-10T07:29:34.581Z,25.83
2022-11-10T07:32:20.828Z,29.53
2022-11-10T07:35:06.741Z,29.43
2022-11-10T07:37:52.458Z,24.93
2022-11-10T07:40:39.116Z,23.57
2022-11-10T07:43:25.655Z,29.53
2022-11-10T07:46:11.803Z,29.30
2022-11-10T07:48:57.716Z,25.83
2022-11-10T07:51:43.899Z,31.17
2022-11-10T07:54:29.886Z,35.13
2022-11-10T07:57:16.318Z,43.33
2022-11-10T08:00:02.501Z,39.53
2022-11-10T08:02:48.177Z,31.20
2022-11-10T08:05:34.486Z,40.77
2022-11-10T08:08:20.730Z,29.37
2022-11-10T08:11:06.684Z,37.20
2022-11-10T08:13:52.560Z,46.13
2022-11-10T08:16:38.456Z,40.67
2022-11-10T08:19:24.318Z,32.07
2022-11-10T08:22:10.094Z,37.10
2022-11-10T08:24:55.593Z,32.03
2022-11-10T08:27:41.895Z,27.43
2022-11-10T08:30:28.109Z,36.87
2022-11-10T08:33:16.017Z,25.30
2022-11-10T08:36:02.868Z,38.00
2022-11-10T08:38:48.944Z,35.43
2022-11-10T08:41:35.225Z,41.23
2022-11-10T08:44:21.495Z,47.30
2022-11-10T08:47:07.560Z,37.90
2022-11-10T08:49:53.798Z,33.50
2022-11-10T08:52:39.719Z,46.00
2022-11-10T08:55:25.431Z,33.47
2022-11-10T08:58:16.243Z,40.40
2022-11-10T09:01:02.084Z,26.43
2022-11-10T09:03:47.946Z,31.47
2022-11-10T09:06:33.861Z,27.27
2022-11-10T09:09:19.701Z,29.30
2022-11-10T09:12:05.503Z,28.07
2022-11-10T09:14:51.376Z,36.27
2022-11-10T09:17:37.861Z,31.80
2022-11-10T09:20:23.965Z,31.10
2022-11-10T09:23:13.329Z,30.40
2022-11-10T09:25:58.978Z,33.80
2022-11-10T09:28:44.935Z,36.87
2022-11-10T09:31:30.982Z,38.57
2022-11-10T09:34:16.810Z,22.30
2022-11-10T09:37:02.657Z,24.93
2022-11-10T09:39:48.608Z,22.67
2022-11-10T09:42:38.840Z,26.93
2022-11-10T09:45:35.081Z,29.13
2022-11-10T09:48:29.789Z,33.33
2022-11-10T09:51:25.778Z,27.70
2022-11-10T09:54:28.681Z,25.93
2022-11-10T09:57:17.410Z,27.87
2022-11-10T10:00:04.875Z,28.90
2022-11-10T10:02:59.367Z,23.67
2022-11-10T10:05:46.502Z,28.73
2022-11-10T10:09:19.102Z,35.37
2022-11-10T10:12:52.090Z,34.23
2022-11-10T10:16:05.101Z,24.27
2022-11-10T10:19:21.843Z,30.00
2022-11-10T10:22:24.809Z,26.53
2022-11-10T10:25:20.605Z,39.90
2022-11-10T10:28:24.517Z,29.70
2022-11-10T10:31:40.895Z,23.43
2022-11-10T10:34:30.656Z,23.80
2022-11-10T10:37:41.640Z,26.23
2022-11-10T10:40:27.706Z,28.00
2022-11-10T10:43:13.731Z,27.73
2022-11-10T10:46:11.762Z,25.03
2022-11-10T10:49:27.472Z,29.63
2022-11-10T10:52:12.040Z,17.60
2022-11-10T10:55:05.574Z,26.00
2022-11-10T10:57:52.937Z,19.00
2022-11-10T11:00:47.523Z,21.07
2022-11-10T11:03:43.591Z,19.00
2022-11-10T11:06:31.639Z,27.63
2022-11-10T11:09:26.372Z,20.67
2022-11-10T11:12:27.199Z,24.13
2022-11-10T11:15:19.780Z,21.47
2022-11-10T11:18:15.449Z,28.40
2022-11-10T11:21:18.673Z,21.83
2022-11-10T11:24:24.422Z,28.83
2022-11-10T11:27:10.505Z,32.07
2022-11-10T11:30:12.130Z,28.70
2022-11-10T11:33:16.034Z,18.30
2022-11-10T11:36:07.269Z,25.03
2022-11-10T11:39:06.666Z,35.43
2022-11-10T11:41:59.236Z,24.90
2022-11-10T11:45:15.610Z,26.83
2022-11-10T11:48:23.358Z,28.27
2022-11-10T11:51:42.500Z,19.67
2022-11-10T11:54:30.605Z,23.43
2022-11-10T11:57:34.496Z,19.03
2022-11-10T12:00:24.703Z,24.43
2022-11-10T12:03:29.889Z,23.70
2022-11-10T12:06:30.381Z,26.07
2022-11-10T12:09:17.394Z,20.97
2022-11-10T12:12:48.255Z,23.17
2022-11-10T12:15:34.579Z,21.23
2022-11-10T12:18:21.064Z,26.20
2022-11-10T12:21:07.203Z,28.07
2022-11-10T12:24:11.060Z,24.10
2022-11-10T12:27:00.998Z,25.40
2022-11-10T12:30:01.609Z,25.50
2022-11-10T12:33:07.471Z,22.70
2022-11-10T12:35:55.240Z,22.17
2022-11-10T12:38:41.194Z,18.10
2022-11-10T12:41:34.050Z,20.07
2022-11-10T12:44:41.200Z,19.57
2022-11-10T12:47:38.032Z,21.83
2022-11-10T12:50:31.820Z,25.80
2022-11-10T12:53:32.107Z,18.83
2022-11-10T12:56:32.429Z,17.23
2022-11-10T12:59:26.313Z,20.20
2022-11-10T13:02:35.080Z,19.73
2022-11-10T13:05:54.884Z,22.27
2022-11-10T13:08:43.339Z,19.33
2022-11-10T13:11:34.620Z,23.80
2022-11-10T13:14:34.407Z,19.90
2022-11-10T13:17:43.161Z,17.37
2022-11-10T13:20:51.030Z,23.43
2022-11-10T13:23:37.779Z,29.43
2022-11-10T13:26:42.403Z,17.43
2022-11-10T13:29:43.398Z,25.40
2022-11-10T13:32:33.819Z,17.10
2022-11-10T13:35:28.316Z,21.70
2022-11-10T13:38:38.854Z,22.80
2022-11-10T13:41:26.370Z,18.80
2022-11-10T13:44:28.452Z,27.97
2022-11-10T13:47:14.253Z,17.80
2022-11-10T13:50:27.967Z,24.40
2022-11-10T13:53:23.615Z,22.07
2022-11-10T13:56:21.101Z,23.80
2022-11-10T13:59:27.618Z,16.53
2022-11-10T14:02:38.948Z,16.97
2022-11-10T14:05:30.663Z,13.80
2022-11-10T14:08:22.716Z,21.63
2022-11-10T14:11:21.066Z,19.83
2022-11-10T14:14:29.096Z,15.43
2022-11-10T14:17:48.052Z,16.53
2022-11-10T14:20:45.529Z,19.93
2022-11-10T14:23:49.450Z,18.37
2022-11-10T14:26:50.765Z,18.53
2022-11-10T14:29:40.862Z,15.67
2022-11-10T14:32:27.221Z,26.73
2022-11-10T14:35:27.920Z,17.93
2022-11-10T14:38:21.175Z,23.67
2022-11-10T14:41:21.808Z,21.93
2022-11-10T14:44:13.240Z,13.33
2022-11-10T14:47:24.197Z,19.67
2022-11-10T14:50:17.341Z,9.90
2022-11-10T14:53:12.250Z,21.17
2022-11-10T14:55:58.494Z,32.33
2022-11-10T14:58:44.961Z,15.57
2022-11-10T15:01:35.192Z,16.40
2022-11-10T15:04:28.598Z,20.20
2022-11-10T15:07:14.641Z,18.67
2022-11-10T15:10:08.432Z,17.43
2022-11-10T15:13:40.439Z,27.33
2022-11-10T15:16:36.675Z,22.73
2022-11-10T15:19:32.210Z,17.73
2022-11-10T15:22:36.812Z,17.80
2022-11-10T15:25:23.927Z,15.93
2022-11-10T15:28:15.888Z,21.93
2022-11-10T15:31:01.624Z,19.43
2022-11-10T15:33:49.081Z,20.40
2022-11-10T15:36:40.748Z,20.97
2022-11-10T15:39:27.770Z,19.10
2022-11-10T15:42:33.161Z,25.53
2022-11-10T15:45:19.051Z,17.80
2022-11-10T15:48:07.844Z,22.53
2022-11-10T15:50:55.439Z,14.60
2022-11-10T15:53:51.926Z,17.97
2022-11-10T15:56:37.733Z,17.27
2022-11-10T15:59:23.615Z,13.87
2022-11-10T16:02:20.296Z,15.93
2022-11-10T16:05:12.670Z,17.50
2022-11-10T16:07:58.022Z,19.23
2022-11-10T16:10:46.731Z,30.77
2022-11-10T16:13:32.832Z,24.43
2022-11-10T16:16:19.254Z,31.43
2022-11-10T16:19:04.918Z,22.87
2022-11-10T16:21:50.805Z,10.20
2022-11-10T16:24:36.601Z,27.83
2022-11-10T16:27:22.477Z,21.63
2022-11-10T16:30:14.400Z,22.07
2022-11-10T16:33:00.246Z,32.87
2022-11-10T16:35:52.834Z,24.53
2022-11-10T16:38:38.755Z,19.90
2022-11-10T16:41:24.650Z,22.03
2022-11-10T16:44:13.104Z,18.83
2022-11-10T16:46:59.166Z,16.70
2022-11-10T16:49:45.745Z,32.37
2022-11-10T16:52:31.688Z,17.73
2022-11-10T16:55:17.840Z,20.67
2022-11-10T16:58:03.832Z,14.37
2022-11-10T17:00:50.103Z,20.60
2022-11-10T17:03:42.933Z,20.70
2022-11-10T17:06:29.697Z,27.53
2022-11-10T17:09:22.575Z,18.87
2022-11-10T17:12:16.886Z,17.67
2022-11-10T17:15:02.674Z,19.17
2022-11-10T17:17:51.460Z,19.40
2022-11-10T17:20:42.384Z,15.43
2022-11-10T17:23:28.970Z,24.33
2022-11-10T17:26:20.264Z,19.93
2022-11-10T17:29:06.360Z,23.53
2022-11-10T17:31:52.913Z,13.93
2022-11-10T17:34:42.241Z,24.87
2022-11-10T17:37:28.157Z,90.37
2022-11-10T17:40:21.050Z,14.67
2022-11-10T17:43:06.810Z,23.47
2022-11-10T17:45:52.896Z,22.37
2022-11-10T17:48:39.708Z,16.87
2022-11-10T17:51:25.759Z,40.40
2022-11-10T17:54:15.454Z,19.27
2022-11-10T17:57:04.465Z,20.47
2022-11-10T17:59:49.917Z,41.80
2022-11-10T18:02:36.039Z,18.03
2022-11-10T18:05:22.087Z,23.27
2022-11-10T18:08:07.840Z,22.77
2022-11-10T18:10:53.766Z,17.67
2022-11-10T18:13:40.575Z,20.20
2022-11-10T18:16:27.189Z,16.97
2022-11-10T18:19:13.113Z,17.40
2022-11-10T18:21:58.778Z,20.33
2022-11-10T18:24:44.503Z,13.97
2022-11-10T18:27:31.287Z,22.87
2022-11-10T18:30:18.233Z,11.00
2022-11-10T18:33:05.697Z,24.43
2022-11-10T18:35:52.373Z,16.33
2022-11-10T18:38:38.504Z,12.60
2022-11-10T18:41:43.150Z,18.83
2022-11-10T18:44:29.687Z,15.60
2022-11-10T18:47:15.641Z,15.60
2022-11-10T18:50:01.572Z,16.87
2022-11-10T18:52:47.393Z,13.47
2022-11-10T18:55:33.675Z,14.37
2022-11-10T18:58:19.854Z,22.40
2022-11-10T19:01:07.494Z,16.03
2022-11-10T19:03:54.203Z,11.43
2022-11-10T19:06:40.740Z,21.67
2022-11-10T19:09:26.637Z,26.23
2022-11-10T19:12:12.722Z,20.17
2022-11-10T19:14:58.879Z,15.37
2022-11-10T19:17:44.381Z,16.30
2022-11-10T19:20:30.375Z,18.43
2022-11-10T19:23:16.275Z,17.63
2022-11-10T19:26:04.233Z,15.27
2022-11-10T19:28:50.176Z,15.03
2022-11-10T19:31:36.164Z,11.83
2022-11-10T19:34:22.103Z,17.97
2022-11-10T19:37:07.504Z,19.30
2022-11-10T19:39:53.840Z,16.07
2022-11-10T19:42:39.418Z,15.77
2022-11-10T19:45:25.396Z,13.20
2022-11-10T19:48:11.131Z,12.33
2022-11-10T19:50:57.306Z,21.53
2022-11-10T19:53:45.233Z,15.97
2022-11-10T19:56:33.871Z,13.70
2022-11-10T19:59:21.078Z,17.80
2022-11-10T20:02:07.912Z,17.15
2022-11-10T20:05:12.391Z,20.07
2022-11-10T20:08:13.661Z,9.23
2022-11-10T20:11:01.827Z,9.63
2022-11-10T20:13:54.961Z,19.43
2022-11-10T20:16:41.582Z,16.60
2022-11-10T20:19:27.432Z,11.00
2022-11-10T20:22:13.631Z,13.93
2022-11-10T20:25:05.443Z,7.73
2022-11-10T20:27:52.865Z,11.00
2022-11-10T20:30:43.100Z,17.00
2022-11-10T20:33:30.801Z,11.67
2022-11-10T20:36:23.277Z,14.07
2022-11-10T20:39:09.500Z,13.70
2022-11-10T20:41:55.850Z,15.30
2022-11-10T20:44:41.612Z,14.47
2022-11-10T20:47:28.749Z,8.73
2022-11-10T20:50:17.165Z,11.27
2022-11-10T20:53:05.740Z,8.97
2022-11-10T20:55:58.037Z,18.83
2022-11-10T20:58:45.147Z,15.00
2022-11-10T21:01:32.637Z,10.10
2022-11-10T21:04:18.987Z,10.93
2022-11-10T21:07:05.210Z,13.80
2022-11-10T21:09:51.005Z,9.30
2022-11-10T21:12:52.004Z,12.57
2022-11-10T21:15:39.704Z,11.60
2022-11-10T21:18:28.218Z,12.50
2022-11-10T21:21:22.601Z,15.43
2022-11-10T21:24:09.285Z,10.23
2022-11-10T21:26:55.519Z,13.73
2022-11-10T21:29:42.335Z,9.57
2022-11-10T21:32:28.509Z,14.87
2022-11-10T21:35:14.324Z,9.73
2022-11-10T21:37:59.910Z,12.87
2022-11-10T21:40:46.908Z,12.47
2022-11-10T21:43:33.096Z,8.57
2022-11-10T21:46:19.308Z,9.40
2022-11-10T21:49:08.204Z,13.35
2022-11-10T21:51:55.521Z,8.37
2022-11-10T21:54:41.886Z,7.90
2022-11-10T21:57:27.659Z,11.00
2022-11-10T22:00:14.224Z,18.60
2022-11-10T22:03:01.607Z,17.33
2022-11-10T22:05:47.733Z,16.43
2022-11-10T22:08:34.075Z,12.10
2022-11-10T22:11:39.460Z,8.23
2022-11-10T22:14:43.887Z,8.40
2022-11-10T22:17:48.727Z,14.80
2022-11-10T22:20:39.436Z,13.27
2022-11-10T22:23:43.736Z,7.10
2022-11-10T22:26:29.161Z,12.40
2022-11-10T22:29:15.034Z,8.67
2022-11-10T22:32:01.165Z,13.47
2022-11-10T22:34:47.214Z,13.30
2022-11-10T22:37:33.074Z,11.60
2022-11-10T22:40:38.379Z,4.43
2022-11-10T22:43:42.608Z,9.13
2022-11-10T22:46:28.642Z,6.67
2022-11-10T22:49:16.019Z,13.20
2022-11-10T22:52:02.164Z,14.67
2022-11-10T22:54:47.484Z,13.87
2022-11-10T22:57:33.338Z,13.70
2022-11-10T23:00:19.448Z,16.87
2022-11-10T23:03:05.539Z,13.33
2022-11-10T23:05:56.252Z,9.17
2022-11-10T23:08:42.836Z,17.20
2022-11-10T23:11:30.995Z,10.50
2022-11-10T23:14:16.587Z,8.90
2022-11-10T23:17:02.560Z,8.07
2022-11-10T23:19:48.267Z,28.10
2022-11-10T23:22:34.297Z,57.67
2022-11-10T23:25:20.140Z,30.80
2022-11-10T23:28:06.226Z,18.80
2022-11-10T23:30:52.428Z,29.07
2022-11-10T23:33:39.594Z,18.90
2022-11-10T23:36:27.501Z,10.87
2022-11-10T23:39:14.053Z,11.97
2022-11-10T23:42:00.092Z,5.77
2022-11-10T23:44:46.057Z,10.63
2022-11-10T23:47:32.042Z,12.93
2022-11-10T23:50:17.912Z,14.80
2022-11-10T23:53:03.383Z,14.60
2022-11-10T23:55:57.659Z,6.80
2022-11-10T23:58:43.400Z,10.37
